sensor_id;sensor_type;location;lat;lon;timestamp;pressure;altitude;pressure_sealevel;temperature;humidity
24302;BME280;12421;49.732;20.078;2022-07-29T00:07:57;97118.52;;;15.20;77.52
24302;BME280;12421;49.732;20.078;2022-07-29T00:17:59;97107.41;;;15.22;77.66
24302;BME280;12421;49.732;20.078;2022-07-29T00:28:01;97101.62;;;15.22;77.80
24302;BME280;12421;49.732;20.078;2022-07-29T00:38:03;97115.25;;;15.26;77.81
24302;BME280;12421;49.732;20.078;2022-07-29T00:48:06;97103.48;;;15.37;77.49
24302;BME280;12421;49.732;20.078;2022-07-29T00:58:12;97095.93;;;15.38;77.58
24302;BME280;12421;49.732;20.078;2022-07-29T01:08:15;97093.98;;;15.28;78.00
24302;BME280;12421;49.732;20.078;2022-07-29T01:18:24;97093.23;;;15.23;78.56
24302;BME280;12421;49.732;20.078;2022-07-29T01:39:00;97081.33;;;15.38;78.03
24302;BME280;12421;49.732;20.078;2022-07-29T01:49:15;97064.13;;;15.36;77.53
24302;BME280;12421;49.732;20.078;2022-07-29T01:59:21;97069.44;;;15.20;77.78
24302;BME280;12421;49.732;20.078;2022-07-29T02:09:25;97071.16;;;15.21;77.57
24302;BME280;12421;49.732;20.078;2022-07-29T02:19:29;97068.36;;;14.93;77.83
24302;BME280;12421;49.732;20.078;2022-07-29T02:29:35;97063.83;;;14.81;77.89
24302;BME280;12421;49.732;20.078;2022-07-29T02:39:40;97057.13;;;14.84;77.83
24302;BME280;12421;49.732;20.078;2022-07-29T03:00:03;97054.00;;;14.68;77.82
24302;BME280;12421;49.732;20.078;2022-07-29T03:10:08;97046.13;;;14.64;77.67
24302;BME280;12421;49.732;20.078;2022-07-29T03:20:11;97034.33;;;14.42;77.37
24302;BME280;12421;49.732;20.078;2022-07-29T03:30:15;97036.53;;;14.42;77.77
24302;BME280;12421;49.732;20.078;2022-07-29T03:40:26;97022.89;;;14.40;77.54
24302;BME280;12421;49.732;20.078;2022-07-29T03:50:26;97042.95;;;14.32;78.31
24302;BME280;12421;49.732;20.078;2022-07-29T04:00:31;97055.92;;;14.44;78.64
24302;BME280;12421;49.732;20.078;2022-07-29T04:10:34;97057.70;;;14.61;79.21
24302;BME280;12421;49.732;20.078;2022-07-29T04:20:37;97059.39;;;14.99;80.13
24302;BME280;12421;49.732;20.078;2022-07-29T04:30:39;97047.23;;;15.56;80.26
24302;BME280;12421;49.732;20.078;2022-07-29T04:40:41;97043.97;;;16.06;80.00
24302;BME280;12421;49.732;20.078;2022-07-29T04:50:43;97044.00;;;16.62;78.93
24302;BME280;12421;49.732;20.078;2022-07-29T05:00:45;97042.64;;;17.01;78.02
24302;BME280;12421;49.732;20.078;2022-07-29T05:10:47;97047.91;;;17.40;77.10
24302;BME280;12421;49.732;20.078;2022-07-29T05:20:49;97048.39;;;17.64;76.63
24302;BME280;12421;49.732;20.078;2022-07-29T05:30:55;97044.42;;;17.98;76.06
24302;BME280;12421;49.732;20.078;2022-07-29T06:03:28;97030.63;;;19.18;74.11
24302;BME280;12421;49.732;20.078;2022-07-29T06:13:34;97017.86;;;19.47;73.38
24302;BME280;12421;49.732;20.078;2022-07-29T06:23:39;97021.09;;;20.30;74.51
24302;BME280;12421;49.732;20.078;2022-07-29T06:45:18;97023.56;;;23.61;65.37
24302;BME280;12421;49.732;20.078;2022-07-29T06:55:35;97027.53;;;25.09;60.80
24302;BME280;12421;49.732;20.078;2022-07-29T07:28:22;97027.66;;;27.50;53.69
24302;BME280;12421;49.732;20.078;2022-07-29T07:38:24;97027.15;;;27.45;52.02
24302;BME280;12421;49.732;20.078;2022-07-29T07:48:31;97020.58;;;28.00;51.76
24302;BME280;12421;49.732;20.078;2022-07-29T07:58:40;97022.71;;;28.18;50.76
24302;BME280;12421;49.732;20.078;2022-07-29T08:08:42;97033.09;;;28.46;48.91
24302;BME280;12421;49.732;20.078;2022-07-29T08:18:45;97032.97;;;28.53;48.22
24302;BME280;12421;49.732;20.078;2022-07-29T08:28:47;97021.59;;;28.21;48.57
24302;BME280;12421;49.732;20.078;2022-07-29T08:38:51;97035.89;;;27.24;50.17
24302;BME280;12421;49.732;20.078;2022-07-29T08:48:55;97027.45;;;27.05;50.55
24302;BME280;12421;49.732;20.078;2022-07-29T08:58:58;97023.96;;;27.40;51.33
24302;BME280;12421;49.732;20.078;2022-07-29T09:09:08;97019.51;;;27.39;51.59
24302;BME280;12421;49.732;20.078;2022-07-29T09:19:30;97013.41;;;27.48;50.54
24302;BME280;12421;49.732;20.078;2022-07-29T09:29:35;97004.63;;;27.39;50.21
24302;BME280;12421;49.732;20.078;2022-07-29T09:39:44;97006.23;;;27.17;50.49
24302;BME280;12421;49.732;20.078;2022-07-29T09:50:14;97001.12;;;27.07;50.42
24302;BME280;12421;49.732;20.078;2022-07-29T10:00:19;96988.52;;;27.32;50.18
24302;BME280;12421;49.732;20.078;2022-07-29T10:10:31;96978.96;;;27.50;49.56
24302;BME280;12421;49.732;20.078;2022-07-29T10:21:00;96978.14;;;27.66;49.35
24302;BME280;12421;49.732;20.078;2022-07-29T10:31:05;96980.14;;;27.80;49.08
24302;BME280;12421;49.732;20.078;2022-07-29T11:36:09;96934.53;;;28.42;47.34
24302;BME280;12421;49.732;20.078;2022-07-29T11:56:45;96920.30;;;28.12;47.19
24302;BME280;12421;49.732;20.078;2022-07-29T12:06:51;96918.19;;;27.94;48.21
24302;BME280;12421;49.732;20.078;2022-07-29T12:16:53;96914.98;;;27.89;47.53
24302;BME280;12421;49.732;20.078;2022-07-29T12:26:59;96895.06;;;28.01;47.98
24302;BME280;12421;49.732;20.078;2022-07-29T12:37:02;96895.41;;;28.13;47.40
24302;BME280;12421;49.732;20.078;2022-07-29T12:47:05;96884.34;;;28.10;47.63
24302;BME280;12421;49.732;20.078;2022-07-29T12:57:18;96874.50;;;28.04;45.48
24302;BME280;12421;49.732;20.078;2022-07-29T13:07:24;96856.65;;;27.90;46.61
24302;BME280;12421;49.732;20.078;2022-07-29T13:17:43;96850.95;;;28.32;45.88
24302;BME280;12421;49.732;20.078;2022-07-29T13:27:51;96842.12;;;28.67;45.34
24302;BME280;12421;49.732;20.078;2022-07-29T13:37:55;96840.30;;;28.94;44.67
24302;BME280;12421;49.732;20.078;2022-07-29T13:47:57;96827.84;;;28.91;44.01
24302;BME280;12421;49.732;20.078;2022-07-29T13:58:01;96803.44;;;28.91;45.43
24302;BME280;12421;49.732;20.078;2022-07-29T14:08:03;96810.02;;;28.83;44.84
24302;BME280;12421;49.732;20.078;2022-07-29T14:18:05;96808.58;;;28.31;44.59
24302;BME280;12421;49.732;20.078;2022-07-29T14:28:07;96795.13;;;27.54;45.80
24302;BME280;12421;49.732;20.078;2022-07-29T14:38:09;96768.73;;;27.17;46.67
24302;BME280;12421;49.732;20.078;2022-07-29T14:48:11;96773.98;;;26.85;47.10
24302;BME280;12421;49.732;20.078;2022-07-29T14:58:13;96770.14;;;26.42;48.06
24302;BME280;12421;49.732;20.078;2022-07-29T15:08:15;96826.52;;;26.05;48.58
24302;BME280;12421;49.732;20.078;2022-07-29T15:18:18;96809.29;;;25.70;49.50
24302;BME280;12421;49.732;20.078;2022-07-29T15:28:20;96817.63;;;25.17;50.59
24302;BME280;12421;49.732;20.078;2022-07-29T15:38:23;96817.63;;;25.17;50.59
24302;BME280;12421;49.732;20.078;2022-07-29T16:12:06;97074.18;;;21.98;60.29
24302;BME280;12421;49.732;20.078;2022-07-29T16:22:09;97028.73;;;20.56;64.46
24302;BME280;12421;49.732;20.078;2022-07-29T16:32:11;97047.55;;;20.08;66.10
24302;BME280;12421;49.732;20.078;2022-07-29T16:52:58;97032.41;;;19.50;68.96
24302;BME280;12421;49.732;20.078;2022-07-29T17:03:01;97028.25;;;19.33;71.20
24302;BME280;12421;49.732;20.078;2022-07-29T17:13:03;97021.15;;;19.21;71.44
24302;BME280;12421;49.732;20.078;2022-07-29T17:23:05;96971.00;;;18.78;72.80
24302;BME280;12421;49.732;20.078;2022-07-29T17:33:07;96970.60;;;18.45;74.12
24302;BME280;12421;49.732;20.078;2022-07-29T17:43:09;96967.47;;;18.67;75.56
24302;BME280;12421;49.732;20.078;2022-07-29T17:53:12;96982.03;;;18.80;76.08
24302;BME280;12421;49.732;20.078;2022-07-29T18:03:14;96972.15;;;18.92;76.23
24302;BME280;12421;49.732;20.078;2022-07-29T18:13:18;96972.48;;;19.05;76.38
24302;BME280;12421;49.732;20.078;2022-07-29T18:23:20;96979.50;;;19.07;76.23
24302;BME280;12421;49.732;20.078;2022-07-29T18:33:22;96963.73;;;19.11;76.21
24302;BME280;12421;49.732;20.078;2022-07-29T18:43:25;96955.88;;;19.18;76.43
24302;BME280;12421;49.732;20.078;2022-07-29T18:53:27;96945.92;;;19.22;76.84
24302;BME280;12421;49.732;20.078;2022-07-29T19:15:12;96968.88;;;19.26;76.55
24302;BME280;12421;49.732;20.078;2022-07-29T19:25:31;96969.15;;;19.20;76.86
24302;BME280;12421;49.732;20.078;2022-07-29T19:35:33;96972.17;;;19.22;76.95
24302;BME280;12421;49.732;20.078;2022-07-29T19:45:35;96971.29;;;19.12;77.30
24302;BME280;12421;49.732;20.078;2022-07-29T19:55:37;96964.30;;;19.09;77.23
24302;BME280;12421;49.732;20.078;2022-07-29T20:05:40;96946.88;;;19.01;77.33
24302;BME280;12421;49.732;20.078;2022-07-29T20:15:42;96930.92;;;18.89;77.59
24302;BME280;12421;49.732;20.078;2022-07-29T20:25:48;96916.64;;;18.70;78.11
24302;BME280;12421;49.732;20.078;2022-07-29T20:35:51;96898.69;;;18.54;78.76
24302;BME280;12421;49.732;20.078;2022-07-29T20:45:53;96874.59;;;18.45;79.19
24302;BME280;12421;49.732;20.078;2022-07-29T20:55:55;96860.75;;;18.57;79.75
24302;BME280;12421;49.732;20.078;2022-07-29T21:05:58;96837.27;;;18.55;79.52
24302;BME280;12421;49.732;20.078;2022-07-29T21:16:01;96865.42;;;18.62;79.62
24302;BME280;12421;49.732;20.078;2022-07-29T21:26:03;96892.08;;;18.72;79.92
24302;BME280;12421;49.732;20.078;2022-07-29T21:36:06;96876.13;;;18.71;79.76
24302;BME280;12421;49.732;20.078;2022-07-29T21:46:08;96880.02;;;18.64;79.90
24302;BME280;12421;49.732;20.078;2022-07-29T21:56:10;96877.42;;;18.62;79.99
24302;BME280;12421;49.732;20.078;2022-07-29T22:06:12;96891.81;;;18.58;80.37
24302;BME280;12421;49.732;20.078;2022-07-29T22:16:14;96873.59;;;18.58;80.54
24302;BME280;12421;49.732;20.078;2022-07-29T22:26:16;96877.56;;;18.59;80.53
24302;BME280;12421;49.732;20.078;2022-07-29T22:36:18;96897.28;;;18.55;80.68
24302;BME280;12421;49.732;20.078;2022-07-29T22:46:20;96886.27;;;18.63;80.52
24302;BME280;12421;49.732;20.078;2022-07-29T22:56:22;96878.76;;;18.62;80.45
24302;BME280;12421;49.732;20.078;2022-07-29T23:06:24;96855.80;;;18.58;80.27
24302;BME280;12421;49.732;20.078;2022-07-29T23:16:27;96838.87;;;18.39;80.68
24302;BME280;12421;49.732;20.078;2022-07-29T23:26:31;96820.36;;;18.25;81.02
24302;BME280;12421;49.732;20.078;2022-07-29T23:36:33;96784.56;;;18.10;81.56
24302;BME280;12421;49.732;20.078;2022-07-29T23:46:35;96774.70;;;18.12;81.76
24302;BME280;12421;49.732;20.078;2022-07-29T23:56:37;96756.72;;;18.17;81.84
